Time;durP1;ratioP1;P1;durP2;ratioP2;P2;SDS_P1;SDS_P2;PMS_P1;PMS_P2;Temp;Humidity;BMP_temperature;BMP_pressure;BME280_temperature;BME280_humidity;BME280_pressure;Samples;Min_cycle;Max_cycle;Signal;HPM_P1;HPM_P2
2022/09/08 00:01:17;;;;;;;3.50;2.23;;;19.40;99.90;;;;;;5066020;28;21779;-71
2022/09/08 00:04:05;;;;;;;3.77;2.00;;;19.30;99.90;;;;;;5066471;28;21256;-70
2022/09/08 00:06:51;;;;;;;2.53;1.70;;;19.20;99.90;;;;;;5055402;28;20523;-71
2022/09/08 00:09:36;;;;;;;3.10;1.70;;;19.10;99.90;;;;;;5065368;28;20555;-71
2022/09/08 00:12:24;;;;;;;3.60;1.57;;;19.10;99.90;;;;;;5066975;28;20546;-72
2022/09/08 00:15:11;;;;;;;3.13;1.60;;;19.20;99.90;;;;;;5067387;28;21003;-71
2022/09/08 00:17:56;;;;;;;2.83;1.80;;;19.20;99.90;;;;;;5065413;28;20596;-71
2022/09/08 00:20:42;;;;;;;2.80;1.37;;;19.20;99.90;;;;;;5069022;28;20513;-71
2022/09/08 00:23:28;;;;;;;3.60;1.60;;;19.10;99.90;;;;;;5066187;28;20460;-71
2022/09/08 00:26:14;;;;;;;5.40;1.60;;;19.20;99.90;;;;;;5066171;28;20460;-71
2022/09/08 00:29:01;;;;;;;2.93;1.60;;;19.20;99.90;;;;;;5064873;28;20466;-71
2022/09/08 00:31:47;;;;;;;4.20;1.80;;;19.10;99.90;;;;;;5063936;28;20470;-71
2022/09/08 00:34:34;;;;;;;7.10;1.93;;;19.10;99.90;;;;;;5060841;28;20447;-71
2022/09/08 00:37:21;;;;;;;4.40;1.63;;;19.00;99.90;;;;;;5063902;28;20470;-71
2022/09/08 00:40:08;;;;;;;3.30;1.57;;;18.90;99.90;;;;;;5066366;28;20453;-71
2022/09/08 00:43:01;;;;;;;3.50;2.10;;;18.90;99.90;;;;;;5063314;28;20937;-71
2022/09/08 00:45:49;;;;;;;3.17;1.87;;;18.80;99.90;;;;;;5064511;28;20473;-71
2022/09/08 00:48:38;;;;;;;3.63;1.77;;;18.90;99.90;;;;;;5067220;28;20791;-70
2022/09/08 00:51:26;;;;;;;5.60;2.23;;;18.80;99.90;;;;;;5058248;28;20487;-71
2022/09/08 00:54:13;;;;;;;3.40;1.63;;;18.70;99.90;;;;;;5068572;28;20435;-71
2022/09/08 00:56:59;;;;;;;11.63;2.00;;;18.60;99.90;;;;;;5065230;28;20462;-71
2022/09/08 00:59:46;;;;;;;4.20;1.50;;;18.50;99.90;;;;;;5065409;28;20540;-70
2022/09/08 01:02:33;;;;;;;3.20;2.17;;;18.30;99.90;;;;;;5064622;28;20520;-70
2022/09/08 01:05:23;;;;;;;5.73;1.77;;;18.40;99.90;;;;;;5064918;28;20824;-71
2022/09/08 01:14:44;;;;;;;3.50;1.80;;;18.40;99.90;;;;;;5065276;28;20513;-70
2022/09/08 01:17:32;;;;;;;3.00;1.83;;;18.30;99.90;;;;;;5068019;28;20455;-70
2022/09/08 01:20:22;;;;;;;6.30;2.00;;;18.50;99.90;;;;;;5060533;28;20475;-71
2022/09/08 01:23:26;;;;;;;3.00;2.10;;;18.50;99.90;;;;;;5067573;28;20439;-71
2022/09/08 01:26:27;;;;;;;5.87;2.33;;;18.60;99.90;;;;;;5066030;28;20462;-71
2022/09/08 01:29:16;;;;;;;4.00;1.80;;;18.70;99.90;;;;;;5067763;28;20454;-70
2022/09/08 01:32:04;;;;;;;6.93;2.57;;;18.80;99.90;;;;;;5061643;28;20633;-70
2022/09/08 01:34:50;;;;;;;4.80;1.87;;;18.80;99.90;;;;;;5062799;28;20528;-71
2022/09/08 01:37:35;;;;;;;7.17;2.43;;;18.80;99.90;;;;;;5066721;28;20947;-71
2022/09/08 01:40:21;;;;;;;6.13;2.70;;;18.90;99.90;;;;;;5062684;28;20540;-71
2022/09/08 01:43:07;;;;;;;4.83;1.90;;;18.80;99.90;;;;;;5066161;28;20808;-71
2022/09/08 01:45:56;;;;;;;7.90;2.37;;;18.80;99.90;;;;;;5067683;28;20440;-71
2022/09/08 01:48:42;;;;;;;6.60;2.67;;;18.80;99.90;;;;;;5071713;28;20838;-71
2022/09/08 01:51:27;;;;;;;8.73;2.77;;;18.70;99.90;;;;;;5068257;28;20469;-71
2022/09/08 01:54:13;;;;;;;4.70;2.23;;;18.70;99.90;;;;;;5071376;28;20442;-71
2022/09/08 01:56:59;;;;;;;6.37;2.37;;;18.70;99.90;;;;;;5069726;28;20445;-71
2022/09/08 01:59:45;;;;;;;4.40;2.20;;;18.80;99.90;;;;;;5067161;28;20892;-70
2022/09/08 02:02:32;;;;;;;5.73;2.20;;;18.80;99.90;;;;;;5070182;28;20831;-70
2022/09/08 02:05:18;;;;;;;5.60;2.50;;;18.80;99.90;;;;;;5071097;28;20421;-71
2022/09/08 02:08:03;;;;;;;4.17;2.57;;;18.80;99.90;;;;;;5062357;28;20434;-71
2022/09/08 02:10:53;;;;;;;5.17;2.20;;;18.80;99.90;;;;;;5066424;28;21010;-71
2022/09/08 02:13:39;;;;;;;6.20;2.40;;;18.90;99.90;;;;;;5075566;28;20449;-70
2022/09/08 02:16:24;;;;;;;9.30;2.70;;;18.90;99.90;;;;;;5059503;28;21131;-71
2022/09/08 02:19:13;;;;;;;7.90;2.20;;;18.90;99.90;;;;;;5064258;28;20794;-70
2022/09/08 02:21:59;;;;;;;6.53;1.83;;;18.90;99.90;;;;;;5070871;28;20439;-71
2022/09/08 02:24:44;;;;;;;12.30;2.23;;;19.00;99.90;;;;;;5061430;28;20507;-70
2022/09/08 02:27:30;;;;;;;4.30;2.03;;;18.90;99.90;;;;;;5066662;28;20929;-71
2022/09/08 02:30:15;;;;;;;6.30;2.00;;;18.90;99.90;;;;;;5061548;28;20428;-71
2022/09/08 02:33:01;;;;;;;4.53;2.37;;;18.90;99.90;;;;;;5059519;28;20685;-71
2022/09/08 02:35:48;;;;;;;8.57;2.50;;;18.90;99.90;;;;;;5069844;28;20474;-71
2022/09/08 02:38:34;;;;;;;5.60;3.10;;;18.70;99.90;;;;;;5056521;28;20417;-70
2022/09/08 02:41:20;;;;;;;3.23;1.70;;;18.80;99.90;;;;;;5062202;28;20438;-71
2022/09/08 02:44:06;;;;;;;9.10;2.57;;;18.70;99.90;;;;;;5068454;28;20442;-70
2022/09/08 02:46:51;;;;;;;5.20;2.13;;;18.70;99.90;;;;;;5064152;28;20466;-70
2022/09/08 02:49:37;;;;;;;4.03;2.97;;;18.50;99.90;;;;;;5063615;28;20959;-71
2022/09/08 02:52:24;;;;;;;3.90;1.90;;;18.50;99.90;;;;;;5065563;28;20445;-71
2022/09/08 02:55:10;;;;;;;5.30;2.70;;;18.60;99.90;;;;;;5066172;28;20592;-70
2022/09/08 02:57:56;;;;;;;7.70;2.43;;;18.20;99.90;;;;;;5064837;28;20577;-71
2022/09/08 03:00:41;;;;;;;6.40;2.73;;;17.90;99.90;;;;;;5062322;28;20431;-69
2022/09/08 03:03:27;;;;;;;10.77;2.90;;;17.80;99.90;;;;;;5064866;28;20447;-71
2022/09/08 03:06:13;;;;;;;5.23;2.80;;;17.90;99.90;;;;;;5068856;28;20490;-71
2022/09/08 03:09:00;;;;;;;11.23;3.00;;;17.90;99.90;;;;;;5061759;28;20966;-71
2022/09/08 03:11:46;;;;;;;8.90;4.83;;;18.10;99.90;;;;;;5061685;28;20849;-71
2022/09/08 03:14:32;;;;;;;7.23;2.87;;;18.20;99.90;;;;;;5065031;28;20502;-71
2022/09/08 03:17:18;;;;;;;6.83;2.90;;;18.30;99.90;;;;;;5059623;28;20482;-70
2022/09/08 03:20:04;;;;;;;9.40;3.33;;;18.40;99.90;;;;;;5060343;28;21066;-71
2022/09/08 03:22:50;;;;;;;6.80;2.20;;;18.40;99.90;;;;;;5065160;28;20446;-71
2022/09/08 03:25:37;;;;;;;9.33;3.27;;;18.40;99.90;;;;;;5068101;28;20566;-71
2022/09/08 03:28:25;;;;;;;9.90;3.37;;;18.50;99.90;;;;;;5058636;28;20544;-71
2022/09/08 03:31:13;;;;;;;7.50;2.47;;;18.60;99.90;;;;;;5063845;28;21119;-71
2022/09/08 03:33:58;;;;;;;4.97;2.50;;;18.40;99.90;;;;;;5068874;28;20446;-71
2022/09/08 03:36:44;;;;;;;14.13;2.63;;;18.40;99.90;;;;;;5061251;28;20461;-70
2022/09/08 03:39:30;;;;;;;6.03;2.53;;;18.50;99.90;;;;;;5057640;28;20442;-71
2022/09/08 03:42:17;;;;;;;6.77;2.50;;;18.60;99.90;;;;;;5065813;28;20930;-71
2022/09/08 03:45:04;;;;;;;5.93;2.50;;;18.50;99.90;;;;;;5064624;28;20442;-71
2022/09/08 03:47:49;;;;;;;7.70;3.40;;;18.50;99.90;;;;;;5056110;28;20455;-70
2022/09/08 03:50:36;;;;;;;4.83;2.60;;;18.40;99.90;;;;;;5065457;28;20548;-71
2022/09/08 03:53:21;;;;;;;3.80;2.23;;;18.40;99.90;;;;;;5054573;28;20456;-71
2022/09/08 03:56:08;;;;;;;7.70;2.73;;;18.30;99.90;;;;;;5063250;28;20620;-71
2022/09/08 03:58:55;;;;;;;8.50;3.83;;;18.30;99.90;;;;;;5056599;28;20446;-71
2022/09/08 04:01:41;;;;;;;6.33;2.80;;;18.40;99.90;;;;;;5066303;28;20803;-71
2022/09/08 04:04:26;;;;;;;4.50;2.70;;;18.40;99.90;;;;;;5057457;28;20505;-71
2022/09/08 04:07:12;;;;;;;5.87;3.07;;;18.40;99.90;;;;;;5066428;28;20444;-71
2022/09/08 04:09:58;;;;;;;8.07;2.57;;;18.30;99.90;;;;;;5064313;28;20462;-71
2022/09/08 04:12:44;;;;;;;5.27;3.47;;;18.40;99.90;;;;;;5058235;28;20483;-70
2022/09/08 04:18:07;;;;;;;6.53;3.70;;;18.50;99.90;;;;;;5039316;28;20549;-72
2022/09/08 04:20:58;;;;;;;7.20;2.60;;;18.60;99.90;;;;;;5043342;28;23101;-71
2022/09/08 04:23:43;;;;;;;4.43;2.20;;;18.60;99.90;;;;;;5046441;28;20426;-71
2022/09/08 04:26:29;;;;;;;6.80;3.00;;;18.60;99.90;;;;;;5039667;28;20492;-71
2022/09/08 04:29:15;;;;;;;3.63;2.57;;;18.60;99.90;;;;;;5037131;28;20448;-71
2022/09/08 04:32:02;;;;;;;3.60;2.30;;;18.60;99.90;;;;;;5046517;28;20491;-71
2022/09/08 04:34:50;;;;;;;7.57;3.70;;;18.70;99.90;;;;;;5037127;28;20418;-72
2022/09/08 04:37:36;;;;;;;3.20;2.20;;;18.70;99.90;;;;;;5039772;28;20596;-72
2022/09/08 04:40:21;;;;;;;4.80;2.50;;;18.60;99.90;;;;;;5036622;28;20626;-73
2022/09/08 04:43:07;;;;;;;13.83;4.40;;;18.50;99.90;;;;;;5041451;28;20443;-72
2022/09/08 04:45:53;;;;;;;5.13;3.23;;;18.50;99.90;;;;;;5036773;28;20524;-71
2022/09/08 04:48:40;;;;;;;11.93;3.37;;;18.50;99.90;;;;;;5037516;28;20459;-72
2022/09/08 04:51:28;;;;;;;5.40;2.93;;;18.50;99.90;;;;;;5047288;28;20471;-72
2022/09/08 04:54:14;;;;;;;5.17;3.20;;;18.50;99.90;;;;;;5046529;28;20470;-75
2022/09/08 04:56:59;;;;;;;5.43;2.90;;;18.60;99.90;;;;;;5042669;28;20701;-72
2022/09/08 04:59:45;;;;;;;3.27;2.10;;;18.70;99.90;;;;;;5045016;28;20465;-72
2022/09/08 05:02:31;;;;;;;6.10;3.00;;;18.60;99.90;;;;;;5047787;28;20410;-72
2022/09/08 05:05:17;;;;;;;3.03;2.27;;;18.50;99.90;;;;;;5048119;28;20427;-73
2022/09/08 05:08:04;;;;;;;5.33;2.37;;;18.40;99.90;;;;;;5042547;28;20455;-73
2022/09/08 05:10:50;;;;;;;3.60;2.10;;;18.20;99.90;;;;;;5050921;28;20420;-73
2022/09/08 05:13:36;;;;;;;3.20;2.10;;;18.10;99.90;;;;;;5050032;28;21233;-73
2022/09/08 05:16:24;;;;;;;4.83;2.43;;;18.10;99.90;;;;;;5043076;28;20463;-74
2022/09/08 05:19:13;;;;;;;3.50;2.10;;;18.20;99.90;;;;;;5042261;28;20574;-73
2022/09/08 05:21:59;;;;;;;3.57;2.47;;;18.20;99.90;;;;;;5052211;28;20999;-73
2022/09/08 05:24:46;;;;;;;10.03;2.67;;;18.30;99.90;;;;;;5052949;28;20398;-74
2022/09/08 05:27:32;;;;;;;5.60;2.00;;;18.30;99.90;;;;;;5039028;28;20491;-73
2022/09/08 05:30:18;;;;;;;5.90;3.20;;;18.30;99.90;;;;;;5047865;28;20950;-73
2022/09/08 05:33:03;;;;;;;3.33;2.30;;;18.40;99.90;;;;;;5054642;28;20483;-74
2022/09/08 05:35:49;;;;;;;2.63;1.90;;;18.40;99.90;;;;;;5055038;28;21059;-73
2022/09/08 05:38:36;;;;;;;3.27;2.17;;;18.40;99.90;;;;;;5051955;28;20451;-72
2022/09/08 05:41:24;;;;;;;3.20;1.43;;;18.30;99.90;;;;;;5050936;28;20431;-73
2022/09/08 05:44:14;;;;;;;5.40;1.77;;;18.30;99.90;;;;;;5047225;28;20390;-72
2022/09/08 05:47:00;;;;;;;5.70;2.40;;;18.40;99.90;;;;;;5048285;28;20468;-72
2022/09/08 05:49:46;;;;;;;3.23;1.80;;;18.30;99.90;;;;;;5054434;28;20427;-73
2022/09/08 05:52:32;;;;;;;2.63;1.40;;;18.20;99.90;;;;;;5054880;28;20471;-73
2022/09/08 05:55:18;;;;;;;2.73;1.70;;;18.20;99.90;;;;;;5046887;28;20434;-73
2022/09/08 05:58:05;;;;;;;3.07;1.67;;;18.30;99.90;;;;;;5046152;28;20512;-72
2022/09/08 06:00:56;;;;;;;4.13;1.60;;;18.30;99.90;;;;;;5054112;28;20436;-73
2022/09/08 06:03:41;;;;;;;4.17;1.90;;;18.30;99.90;;;;;;5052735;28;20603;-73
2022/09/08 06:06:28;;;;;;;3.53;3.00;;;18.30;99.90;;;;;;5042751;28;20495;-73
2022/09/08 06:09:14;;;;;;;4.97;3.00;;;18.30;99.90;;;;;;5052541;28;20428;-73
2022/09/08 06:12:00;;;;;;;7.10;5.13;;;18.20;99.90;;;;;;5054022;28;20570;-72
2022/09/08 06:14:47;;;;;;;5.97;5.33;;;18.20;99.90;;;;;;5046304;28;20532;-72
2022/09/08 06:17:32;;;;;;;7.93;5.70;;;18.20;99.90;;;;;;5051346;28;20577;-74
2022/09/08 06:20:18;;;;;;;9.97;6.87;;;18.20;99.90;;;;;;5053656;28;20426;-72
2022/09/08 06:23:04;;;;;;;6.30;5.20;;;18.20;99.90;;;;;;5053958;28;20428;-73
2022/09/08 06:25:49;;;;;;;7.93;6.70;;;18.10;99.90;;;;;;5047522;28;20440;-72
2022/09/08 06:28:41;;;;;;;7.90;6.43;;;18.00;99.90;;;;;;5049628;28;20447;-73
2022/09/08 06:31:32;;;;;;;8.13;7.03;;;18.00;99.90;;;;;;5046949;28;20898;-73
2022/09/08 06:34:21;;;;;;;7.33;6.20;;;18.00;99.90;;;;;;5049316;28;20420;-72
2022/09/08 06:37:13;;;;;;;8.03;6.50;;;18.00;99.90;;;;;;5048603;28;20466;-73
2022/09/08 06:40:04;;;;;;;7.30;4.90;;;18.10;99.90;;;;;;5053541;28;20428;-72
2022/09/08 06:42:56;;;;;;;6.73;4.57;;;18.10;99.90;;;;;;5053202;28;20423;-73
2022/09/08 06:45:46;;;;;;;6.00;3.50;;;18.00;99.90;;;;;;5043616;28;20513;-73
2022/09/08 06:48:34;;;;;;;6.87;3.60;;;18.10;99.90;;;;;;5046168;28;20432;-72
2022/09/08 06:51:36;;;;;;;5.30;3.50;;;18.10;99.90;;;;;;5047669;28;20423;-72
2022/09/08 06:54:45;;;;;;;4.43;3.63;;;18.20;99.90;;;;;;5052911;28;20470;-73
2022/09/08 06:57:42;;;;;;;4.10;3.33;;;18.30;99.90;;;;;;5052677;28;20653;-72
2022/09/08 07:00:37;;;;;;;3.03;2.50;;;18.40;99.90;;;;;;5053403;28;20510;-73
2022/09/08 07:03:39;;;;;;;2.97;2.67;;;18.30;99.90;;;;;;5052808;28;20467;-72
2022/09/08 07:06:28;;;;;;;3.60;2.27;;;18.20;99.90;;;;;;5045520;28;20562;-73
2022/09/08 07:09:21;;;;;;;6.57;2.50;;;18.20;99.90;;;;;;5050450;28;20431;-72
2022/09/08 07:12:20;;;;;;;3.87;2.53;;;18.20;99.90;;;;;;5052312;28;20472;-73
2022/09/08 07:15:40;;;;;;;5.07;2.47;;;18.00;99.90;;;;;;5048768;28;20443;-73
2022/09/08 07:18:33;;;;;;;2.60;1.80;;;18.10;99.90;;;;;;5047131;28;20908;-73
2022/09/08 07:21:30;;;;;;;7.20;1.80;;;18.20;99.90;;;;;;5050624;28;20508;-74
2022/09/08 07:24:19;;;;;;;3.80;1.67;;;18.20;99.90;;;;;;5045635;28;20398;-73
2022/09/08 07:27:07;;;;;;;2.70;1.57;;;18.30;99.90;;;;;;5044520;28;20460;-73
2022/09/08 07:29:58;;;;;;;2.43;1.50;;;18.40;99.90;;;;;;5052104;28;20803;-73
2022/09/08 07:32:48;;;;;;;4.60;2.20;;;18.40;99.90;;;;;;5053639;28;20588;-72
2022/09/08 07:36:02;;;;;;;6.63;1.80;;;18.40;99.90;;;;;;5044261;28;20467;-73
2022/09/08 07:38:52;;;;;;;2.70;1.70;;;18.50;99.90;;;;;;5046067;28;20507;-73
2022/09/08 07:41:44;;;;;;;3.47;1.97;;;18.60;99.90;;;;;;5048195;28;20578;-73
2022/09/08 07:44:29;;;;;;;2.50;1.83;;;18.60;99.90;;;;;;5045983;28;20583;-74
2022/09/08 07:47:41;;;;;;;3.93;2.80;;;18.60;99.90;;;;;;5051943;28;20570;-73
2022/09/08 07:53:52;;;;;;;3.80;3.00;;;18.40;99.90;;;;;;5051841;28;20497;-73
2022/09/08 07:56:42;;;;;;;4.67;2.77;;;18.40;99.90;;;;;;5049725;28;20541;-73
2022/09/08 07:59:38;;;;;;;4.03;3.03;;;18.40;99.90;;;;;;5052140;28;20406;-73
2022/09/08 08:02:44;;;;;;;4.07;2.47;;;18.50;99.90;;;;;;5050151;28;20420;-72
2022/09/08 08:05:34;;;;;;;3.77;2.87;;;18.50;99.90;;;;;;5045420;28;20447;-73
2022/09/08 08:08:32;;;;;;;3.57;2.80;;;18.50;99.90;;;;;;5050214;28;20786;-72
2022/09/08 08:11:26;;;;;;;4.30;2.57;;;18.60;99.90;;;;;;5044900;28;20426;-73
2022/09/08 08:14:27;;;;;;;4.80;2.87;;;18.60;99.90;;;;;;5040945;28;20502;-73
2022/09/08 08:17:27;;;;;;;4.43;2.23;;;18.60;99.90;;;;;;5050271;28;20460;-73
2022/09/08 08:20:33;;;;;;;2.77;2.23;;;18.50;99.90;;;;;;5048049;28;20414;-73
2022/09/08 08:23:46;;;;;;;3.47;2.30;;;18.50;99.90;;;;;;5043993;28;20562;-73
2022/09/08 08:26:41;;;;;;;4.03;2.10;;;18.50;99.90;;;;;;5051279;28;20459;-72
2022/09/08 08:29:44;;;;;;;2.80;1.90;;;18.60;99.90;;;;;;5050739;28;20979;-73
2022/09/08 08:32:35;;;;;;;2.40;1.77;;;18.60;99.90;;;;;;5048814;28;20467;-73
2022/09/08 08:35:28;;;;;;;6.10;2.10;;;18.60;99.90;;;;;;5044298;28;20447;-72
2022/09/08 08:38:19;;;;;;;4.67;1.90;;;18.60;99.90;;;;;;5046995;28;21112;-72
2022/09/08 08:41:12;;;;;;;2.00;1.57;;;18.50;99.90;;;;;;5051301;28;20478;-73
2022/09/08 08:44:19;;;;;;;3.20;2.20;;;18.70;99.90;;;;;;5046500;28;20439;-73
2022/09/08 08:47:45;;;;;;;2.43;1.90;;;19.00;99.90;;;;;;5046871;28;20511;-73
2022/09/08 08:50:52;;;;;;;4.13;1.77;;;18.80;99.90;;;;;;4989350;28;20613;-72
2022/09/08 08:54:04;;;;;;;3.87;1.47;;;18.60;99.90;;;;;;4982057;28;20857;-73
2022/09/08 08:56:58;;;;;;;2.67;1.70;;;18.40;99.90;;;;;;5050083;28;20523;-73
2022/09/08 09:00:11;;;;;;;3.00;1.77;;;18.50;99.90;;;;;;5050883;28;20409;-73
2022/09/08 09:03:36;;;;;;;4.40;1.83;;;18.50;99.90;;;;;;5045293;28;20994;-74
2022/09/08 09:06:45;;;;;;;2.53;1.57;;;18.50;99.90;;;;;;5050368;28;20489;-73
2022/09/08 09:09:58;;;;;;;2.67;1.77;;;18.60;99.90;;;;;;5047942;28;20439;-73
2022/09/08 09:13:13;;;;;;;1.90;1.30;;;18.60;99.90;;;;;;5044807;28;20479;-74
2022/09/08 09:16:14;;;;;;;3.73;2.07;;;18.70;99.90;;;;;;5048636;28;20448;-74
2022/09/08 09:19:47;;;;;;;4.80;2.60;;;18.70;99.90;;;;;;5051121;28;20443;-74
2022/09/08 09:22:45;;;;;;;7.33;1.70;;;18.80;99.90;;;;;;5045010;28;20486;-74
2022/09/08 09:25:34;;;;;;;2.53;1.73;;;19.10;99.90;;;;;;5050192;28;20906;-74
2022/09/08 09:28:39;;;;;;;3.30;1.30;;;19.50;99.90;;;;;;5048454;28;20428;-73
2022/09/08 09:32:04;;;;;;;3.00;1.93;;;19.80;99.90;;;;;;5051266;28;20429;-73
2022/09/08 09:35:26;;;;;;;2.47;1.40;;;19.70;99.90;;;;;;5048902;28;20459;-72
2022/09/08 09:38:47;;;;;;;4.90;1.47;;;19.70;99.90;;;;;;5036508;28;20407;-73
2022/09/08 09:42:06;;;;;;;2.63;1.20;;;19.70;99.90;;;;;;5045387;28;20864;-74
2022/09/08 09:45:38;;;;;;;2.83;1.33;;;19.50;99.90;;;;;;5050038;28;20801;-73
2022/09/08 09:48:56;;;;;;;4.10;1.40;;;19.30;99.90;;;;;;5044217;28;20409;-73
2022/09/08 09:51:56;;;;;;;6.17;1.50;;;19.10;99.90;;;;;;5046696;28;20539;-73
2022/09/08 09:54:58;;;;;;;2.43;1.50;;;19.10;99.90;;;;;;5047920;28;20548;-73
2022/09/08 09:58:24;;;;;;;4.13;1.20;;;19.00;99.90;;;;;;5050454;28;20425;-73
2022/09/08 10:01:36;;;;;;;2.07;1.17;;;18.70;99.90;;;;;;5029758;28;20428;-72
2022/09/08 10:04:48;;;;;;;3.07;1.50;;;18.70;99.90;;;;;;5047922;28;20473;-73
2022/09/08 10:08:02;;;;;;;3.40;1.70;;;18.90;99.90;;;;;;5051498;28;20470;-72
2022/09/08 10:11:06;;;;;;;4.47;1.67;;;19.20;99.90;;;;;;5050846;28;20828;-73
2022/09/08 10:14:18;;;;;;;2.33;1.53;;;19.50;99.90;;;;;;5044091;28;20549;-74
2022/09/08 10:17:29;;;;;;;2.67;1.40;;;19.70;99.90;;;;;;5054406;28;20572;-76
2022/09/08 10:20:44;;;;;;;2.67;1.20;;;19.80;99.90;;;;;;5051405;28;20577;-74
2022/09/08 10:24:02;;;;;;;2.37;1.30;;;19.90;99.90;;;;;;5049242;28;20513;-74
2022/09/08 10:27:28;;;;;;;3.20;1.60;;;19.90;99.90;;;;;;5042366;28;20429;-75
2022/09/08 10:30:20;;;;;;;1.80;1.13;;;19.90;99.90;;;;;;5041682;28;20430;-76
2022/09/08 10:33:43;;;;;;;3.50;1.30;;;19.70;99.90;;;;;;5048561;28;20903;-75
2022/09/08 10:36:58;;;;;;;5.40;1.10;;;19.70;99.90;;;;;;5050121;28;20451;-76
2022/09/08 10:40:12;;;;;;;2.10;1.40;;;19.70;99.90;;;;;;5049740;28;20418;-74
2022/09/08 10:43:20;;;;;;;2.50;1.27;;;19.90;99.90;;;;;;5047594;28;20481;-76
2022/09/08 10:46:30;;;;;;;3.87;1.10;;;19.80;99.90;;;;;;5044063;28;20440;-76
2022/09/08 10:49:47;;;;;;;1.97;1.43;;;19.70;99.90;;;;;;5047865;28;20646;-76
2022/09/08 10:52:42;;;;;;;4.43;1.30;;;19.80;99.90;;;;;;5044636;28;20446;-76
2022/09/08 10:55:56;;;;;;;5.13;1.20;;;19.80;99.90;;;;;;5052778;28;20424;-75
2022/09/08 10:59:27;;;;;;;2.10;1.30;;;19.80;99.90;;;;;;5049753;28;20424;-75
2022/09/08 11:02:31;;;;;;;4.13;1.33;;;19.80;99.90;;;;;;5026010;28;20450;-75
2022/09/08 11:05:42;;;;;;;4.17;0.90;;;19.90;99.90;;;;;;5047383;28;20427;-75
2022/09/08 11:09:00;;;;;;;1.40;0.70;;;20.00;99.90;;;;;;5047658;28;20427;-75
2022/09/08 11:12:15;;;;;;;1.90;0.80;;;20.10;99.90;;;;;;5046500;28;20443;-76
2022/09/08 11:15:30;;;;;;;4.23;0.80;;;20.40;99.90;;;;;;5051514;28;20594;-76
2022/09/08 11:18:37;;;;;;;2.57;0.90;;;20.70;99.90;;;;;;5044329;28;20756;-75
2022/09/08 11:21:25;;;;;;;5.70;1.30;;;21.00;99.90;;;;;;5047940;28;20844;-76
2022/09/08 11:24:20;;;;;;;1.90;0.80;;;21.10;99.90;;;;;;5051067;28;20428;-75
2022/09/08 11:27:13;;;;;;;4.13;1.00;;;21.10;99.90;;;;;;5052769;28;20562;-76
2022/09/08 11:30:13;;;;;;;2.33;0.93;;;21.00;98.30;;;;;;5059512;28;20432;-76
2022/09/08 11:33:13;;;;;;;1.90;0.70;;;20.90;99.50;;;;;;5051569;28;20502;-75
2022/09/08 11:36:12;;;;;;;2.00;0.80;;;21.00;99.90;;;;;;5051976;28;20563;-75
2022/09/08 11:39:05;;;;;;;2.07;0.70;;;21.00;97.60;;;;;;5050453;28;20402;-76
2022/09/08 11:42:08;;;;;;;2.87;0.80;;;20.90;97.90;;;;;;5048042;28;20470;-75
2022/09/08 11:45:07;;;;;;;2.23;0.70;;;20.90;99.90;;;;;;5052612;28;20521;-73
2022/09/08 11:48:15;;;;;;;2.70;0.93;;;21.00;99.90;;;;;;5052365;28;21019;-74
2022/09/08 11:51:19;;;;;;;2.57;0.93;;;21.20;98.90;;;;;;5047517;28;20557;-76
2022/09/08 11:54:27;;;;;;;4.37;0.90;;;21.30;97.00;;;;;;5047393;28;20534;-76
2022/09/08 11:57:30;;;;;;;4.40;0.80;;;21.60;99.90;;;;;;5052202;28;20511;-74
2022/09/08 12:00:49;;;;;;;5.67;1.47;;;21.60;95.10;;;;;;5041365;28;21034;-76
2022/09/08 12:04:05;;;;;;;3.73;1.43;;;21.70;94.60;;;;;;5048118;28;20456;-74
2022/09/08 12:07:07;;;;;;;2.50;1.30;;;21.60;91.00;;;;;;5049063;28;20463;-76
2022/09/08 12:10:19;;;;;;;2.53;0.90;;;21.50;95.00;;;;;;5049354;28;20436;-76
2022/09/08 12:13:15;;;;;;;2.70;1.03;;;21.60;94.30;;;;;;5050973;28;20553;-76
2022/09/08 12:16:23;;;;;;;2.30;0.97;;;21.50;89.60;;;;;;5051393;28;20537;-75
2022/09/08 12:19:28;;;;;;;5.93;1.57;;;21.50;88.90;;;;;;5051300;28;20470;-76
2022/09/08 12:22:30;;;;;;;4.80;1.77;;;21.70;91.10;;;;;;5051331;28;20401;-76
2022/09/08 12:25:34;;;;;;;4.83;1.23;;;22.10;94.70;;;;;;5044272;28;20909;-76
2022/09/08 12:28:38;;;;;;;3.20;1.30;;;22.20;83.80;;;;;;5056945;28;20425;-75
2022/09/08 12:31:52;;;;;;;2.70;1.23;;;22.10;87.00;;;;;;5045240;28;20951;-76
2022/09/08 12:35:01;;;;;;;3.20;1.93;;;22.00;83.90;;;;;;5051285;28;20471;-75
2022/09/08 12:37:58;;;;;;;3.07;1.30;;;22.00;83.90;;;;;;5047654;28;20498;-75
2022/09/08 12:41:28;;;;;;;3.80;1.77;;;22.40;90.70;;;;;;5046570;28;20448;-75
2022/09/08 12:44:26;;;;;;;4.37;2.10;;;22.90;84.40;;;;;;4981968;28;20490;-76
2022/09/08 12:47:24;;;;;;;3.43;1.10;;;22.90;74.70;;;;;;5044740;28;21044;-75
2022/09/08 12:50:34;;;;;;;1.90;1.20;;;23.20;76.20;;;;;;5038453;28;20426;-76
2022/09/08 12:54:00;;;;;;;2.63;1.20;;;23.30;72.90;;;;;;5050904;28;20419;-75
2022/09/08 12:57:04;;;;;;;3.93;1.13;;;23.20;71.50;;;;;;5012771;28;20468;-76
2022/09/08 12:59:59;;;;;;;3.80;2.17;;;23.00;71.50;;;;;;5048184;28;20582;-76
2022/09/08 13:03:23;;;;;;;3.87;1.33;;;22.80;70.90;;;;;;5049058;28;20436;-74
2022/09/08 13:06:41;;;;;;;4.67;1.70;;;22.70;69.80;;;;;;5050707;28;20438;-75
2022/09/08 13:09:32;;;;;;;2.70;1.20;;;22.50;70.90;;;;;;5040678;28;20842;-76
2022/09/08 13:12:48;;;;;;;2.90;1.27;;;22.00;71.80;;;;;;5049473;28;20427;-76
2022/09/08 13:15:37;;;;;;;3.03;1.40;;;21.80;76.10;;;;;;5020619;28;20467;-76
2022/09/08 13:18:31;;;;;;;3.30;1.10;;;22.00;81.30;;;;;;5046445;28;20440;-75
2022/09/08 13:21:26;;;;;;;3.80;1.70;;;22.50;78.00;;;;;;5049984;28;20446;-76
2022/09/08 13:24:15;;;;;;;2.20;0.97;;;22.90;76.00;;;;;;5044278;28;20551;-76
2022/09/08 13:27:13;;;;;;;4.90;0.90;;;23.40;73.50;;;;;;5050609;28;20447;-76
2022/09/08 13:30:15;;;;;;;2.40;0.90;;;23.80;67.70;;;;;;5046642;28;20467;-76
2022/09/08 13:33:36;;;;;;;4.47;0.93;;;23.90;60.40;;;;;;5051070;28;20789;-76
2022/09/08 13:36:36;;;;;;;3.50;1.10;;;23.40;61.80;;;;;;5049759;28;20832;-76
2022/09/08 13:39:56;;;;;;;3.00;1.00;;;23.00;59.80;;;;;;5039606;28;20522;-76
2022/09/08 13:43:09;;;;;;;2.80;1.10;;;22.70;60.70;;;;;;5046357;28;20435;-76
2022/09/08 13:46:09;;;;;;;5.57;2.17;;;22.90;67.30;;;;;;5052372;28;20988;-76
2022/09/08 13:49:37;;;;;;;3.97;1.70;;;23.00;67.40;;;;;;5048110;28;20451;-74
2022/09/08 13:52:45;;;;;;;5.37;1.77;;;22.90;67.30;;;;;;5019846;28;20427;-75
2022/09/08 13:55:56;;;;;;;3.27;1.40;;;22.80;67.90;;;;;;5048997;28;20966;-75
2022/09/08 13:58:44;;;;;;;3.17;1.20;;;22.60;68.70;;;;;;5046624;28;20864;-76
2022/09/08 14:01:40;;;;;;;3.20;1.30;;;22.50;67.70;;;;;;5051684;28;20937;-75
2022/09/08 14:04:35;;;;;;;9.40;1.10;;;22.50;67.90;;;;;;5047672;28;20423;-75
2022/09/08 14:07:24;;;;;;;2.53;1.10;;;22.50;68.10;;;;;;5047109;28;20811;-75
2022/09/08 14:10:22;;;;;;;3.07;0.93;;;22.40;65.40;;;;;;5049602;28;20436;-76
2022/09/08 14:13:30;;;;;;;4.93;1.77;;;22.40;66.90;;;;;;5053962;28;20473;-75
2022/09/08 14:16:26;;;;;;;5.37;1.30;;;22.30;70.10;;;;;;5052922;28;20980;-76
2022/09/08 14:19:40;;;;;;;3.87;1.13;;;22.20;68.80;;;;;;5046318;28;20447;-75
2022/09/08 14:22:44;;;;;;;4.87;1.37;;;22.10;67.60;;;;;;5053224;28;20424;-75
2022/09/08 14:25:33;;;;;;;4.53;0.90;;;22.20;69.70;;;;;;5048047;28;20424;-75
2022/09/08 14:28:23;;;;;;;4.93;1.10;;;22.10;67.70;;;;;;5045561;28;20447;-76
2022/09/08 14:31:17;;;;;;;4.27;1.40;;;22.10;69.90;;;;;;5053906;28;20474;-76
2022/09/08 14:34:20;;;;;;;4.40;1.73;;;22.10;68.80;;;;;;5053454;28;20478;-72
2022/09/08 14:37:11;;;;;;;7.77;1.20;;;21.90;69.80;;;;;;5052716;28;20494;-75
2022/09/08 14:40:13;;;;;;;2.87;1.10;;;21.70;69.00;;;;;;5052539;28;20427;-75
2022/09/08 14:43:17;;;;;;;3.03;1.10;;;21.60;71.80;;;;;;5052208;28;20510;-73
2022/09/08 14:46:09;;;;;;;3.47;1.40;;;21.10;91.10;;;;;;5052695;28;20463;-75
2022/09/08 14:49:09;;;;;;;4.67;1.40;;;20.60;99.90;;;;;;5047219;28;20951;-76
2022/09/08 14:52:10;;;;;;;4.80;1.33;;;20.30;99.90;;;;;;5053515;28;20509;-76
2022/09/08 14:55:14;;;;;;;3.50;1.27;;;20.00;99.90;;;;;;5052736;28;20449;-75
2022/09/08 14:58:27;;;;;;;6.20;1.10;;;19.80;99.90;;;;;;5049810;28;20472;-76
2022/09/08 15:01:24;;;;;;;2.90;1.03;;;20.20;99.90;;;;;;5046200;28;20764;-75
2022/09/08 15:04:17;;;;;;;5.80;1.30;;;20.10;99.90;;;;;;5049586;28;20550;-76
2022/09/08 15:07:14;;;;;;;2.90;1.13;;;20.20;99.90;;;;;;5051752;28;20530;-75
2022/09/08 15:10:04;;;;;;;9.00;0.97;;;20.70;99.90;;;;;;5052683;28;20787;-73
2022/09/08 15:13:11;;;;;;;2.17;1.00;;;21.10;99.90;;;;;;5053017;28;20953;-76
2022/09/08 15:16:27;;;;;;;5.90;1.10;;;21.60;99.90;;;;;;5050502;28;20475;-76
2022/09/08 15:19:22;;;;;;;2.10;0.80;;;21.90;99.90;;;;;;5047713;28;20481;-76
2022/09/08 15:22:29;;;;;;;3.37;0.93;;;22.30;99.90;;;;;;5052887;28;20431;-75
2022/09/08 15:25:25;;;;;;;4.80;1.10;;;22.50;99.90;;;;;;5052585;28;20423;-77
2022/09/08 15:28:26;;;;;;;5.00;1.40;;;22.50;99.90;;;;;;5038296;28;20444;-76